createdAt,value
2022-10-05T00:03:02.542Z,50.13
2022-10-05T00:09:51.409Z,50.10
2022-10-05T00:16:38.569Z,49.59
2022-10-05T00:23:32.527Z,49.72
2022-10-05T00:30:22.200Z,49.89
2022-10-05T00:37:08.137Z,49.54
2022-10-05T00:44:18.201Z,49.67
2022-10-05T00:51:27.118Z,49.64
2022-10-05T00:58:23.917Z,49.98
2022-10-05T01:05:18.910Z,49.81
2022-10-05T01:12:12.453Z,49.90
2022-10-05T01:19:09.665Z,50.01
2022-10-05T01:26:16.769Z,49.84
2022-10-05T01:33:13.461Z,49.80
2022-10-05T01:40:09.766Z,49.79
2022-10-05T01:47:04.485Z,50.13
2022-10-05T01:54:09.536Z,50.13
2022-10-05T02:01:06.601Z,50.36
2022-10-05T02:07:59.467Z,50.35
2022-10-05T02:14:52.753Z,50.40
2022-10-05T02:21:40.374Z,50.19
2022-10-05T02:28:32.355Z,50.45
2022-10-05T02:43:26.894Z,50.66
2022-10-05T03:04:17.320Z,50.45
2022-10-05T03:11:12.734Z,50.72
2022-10-05T03:18:10.832Z,50.81
2022-10-05T03:25:35.222Z,51.01
2022-10-05T03:32:33.263Z,51.08
2022-10-05T03:39:29.132Z,51.03
2022-10-05T03:46:28.243Z,51.44
2022-10-05T03:53:21.581Z,51.92
2022-10-05T04:00:15.493Z,52.10
2022-10-05T04:07:18.223Z,51.97
2022-10-05T04:14:10.229Z,52.02
2022-10-05T04:21:01.801Z,52.44
2022-10-05T04:27:55.604Z,52.56
2022-10-05T04:34:56.005Z,52.50
2022-10-05T04:42:06.342Z,52.45
2022-10-05T04:49:36.766Z,52.36
2022-10-05T04:56:32.798Z,52.11
2022-10-05T05:04:00.239Z,52.25
2022-10-05T05:11:19.991Z,52.20
2022-10-05T05:18:36.452Z,52.33
2022-10-05T05:25:37.391Z,52.43
2022-10-05T05:32:42.640Z,52.90
2022-10-05T05:39:32.411Z,52.89
2022-10-05T05:46:51.300Z,53.30
2022-10-05T05:53:42.575Z,53.23
2022-10-05T06:00:34.465Z,53.62
2022-10-05T06:07:30.763Z,53.59
2022-10-05T06:14:27.860Z,53.79
2022-10-05T06:21:23.654Z,53.79
2022-10-05T06:28:13.821Z,53.87
2022-10-05T06:35:25.421Z,54.36
2022-10-05T06:42:35.272Z,54.66
2022-10-05T06:49:46.664Z,54.41
2022-10-05T06:57:02.317Z,54.77
2022-10-05T07:04:12.462Z,55.17
2022-10-05T07:11:07.855Z,56.00
2022-10-05T07:18:13.394Z,56.98
2022-10-05T07:25:08.927Z,57.94
2022-10-05T07:32:09.179Z,58.59
2022-10-05T07:39:07.942Z,59.07
2022-10-05T07:46:01.676Z,59.71
2022-10-05T07:52:53.389Z,59.68
2022-10-05T07:59:51.234Z,60.09
2022-10-05T08:06:51.954Z,60.33
2022-10-05T08:13:47.693Z,60.62
2022-10-05T08:20:47.684Z,60.82
2022-10-05T08:27:44.900Z,61.16
2022-10-05T08:34:37.361Z,60.92
2022-10-05T08:42:20.359Z,60.74
2022-10-05T08:50:02.045Z,60.57
2022-10-05T08:57:00.930Z,60.93
2022-10-05T09:04:22.451Z,61.26
2022-10-05T09:11:14.614Z,61.59
2022-10-05T09:19:03.118Z,61.31
2022-10-05T09:26:11.555Z,60.96
2022-10-05T09:33:33.642Z,60.96
2022-10-05T09:41:01.033Z,60.63
2022-10-05T09:48:45.496Z,60.37
2022-10-05T09:56:12.777Z,60.81
2022-10-05T10:04:07.086Z,60.19
2022-10-05T10:11:21.698Z,59.60
2022-10-05T10:18:37.673Z,59.76
2022-10-05T10:25:50.210Z,59.30
2022-10-05T10:33:20.114Z,59.59
2022-10-05T10:40:42.427Z,59.36
2022-10-05T10:47:47.160Z,59.46
2022-10-05T10:55:02.360Z,59.27
2022-10-05T11:02:28.644Z,58.79
2022-10-05T11:09:42.741Z,58.62
2022-10-05T11:17:16.720Z,58.71
2022-10-05T11:24:45.164Z,58.22
2022-10-05T11:32:20.580Z,57.64
2022-10-05T11:39:37.006Z,57.34
2022-10-05T11:46:33.062Z,56.86
2022-10-05T11:53:26.888Z,56.73
2022-10-05T12:00:22.462Z,56.98
2022-10-05T12:07:21.698Z,56.44
2022-10-05T12:14:17.865Z,55.68
2022-10-05T12:21:08.932Z,55.88
2022-10-05T12:28:00.239Z,55.74
2022-10-05T12:35:01.715Z,54.99
2022-10-05T12:41:59.171Z,54.20
2022-10-05T12:49:07.979Z,53.85
2022-10-05T12:56:02.885Z,53.88
2022-10-05T13:02:52.782Z,53.11
2022-10-05T13:09:45.570Z,53.23
2022-10-05T13:16:39.962Z,52.56
2022-10-05T13:23:39.763Z,52.58
2022-10-05T13:30:25.544Z,52.04
2022-10-05T13:37:18.159Z,52.20
2022-10-05T13:44:22.828Z,52.47
2022-10-05T13:51:17.836Z,52.26
2022-10-05T13:58:10.253Z,52.17
2022-10-05T14:05:04.909Z,51.90
2022-10-05T14:12:14.903Z,52.04
2022-10-05T14:19:18.607Z,51.74
2022-10-05T14:26:12.028Z,51.49
2022-10-05T14:33:00.584Z,51.66
2022-10-05T14:39:45.932Z,51.83
2022-10-05T14:46:38.675Z,51.27
2022-10-05T14:53:26.196Z,51.70
2022-10-05T15:00:16.486Z,51.32
2022-10-05T15:07:21.070Z,51.65
2022-10-05T15:14:17.908Z,51.63
2022-10-05T15:21:36.935Z,51.61
2022-10-05T15:28:40.674Z,51.86
2022-10-05T15:36:05.351Z,51.59
2022-10-05T15:42:52.735Z,51.94
2022-10-05T15:49:51.965Z,52.09
2022-10-05T15:56:42.113Z,52.13
2022-10-05T16:03:37.302Z,52.12
2022-10-05T16:10:27.258Z,52.13
2022-10-05T16:17:27.834Z,52.46
2022-10-05T16:24:40.009Z,52.36
2022-10-05T16:31:37.621Z,52.26
2022-10-05T16:38:38.726Z,52.21
2022-10-05T16:45:45.027Z,52.75
2022-10-05T16:52:35.781Z,52.07
2022-10-05T17:00:03.330Z,52.14
2022-10-05T17:07:16.832Z,52.12
2022-10-05T17:14:24.509Z,52.04
2022-10-05T17:21:21.455Z,52.05
2022-10-05T17:28:26.380Z,52.11
2022-10-05T17:35:58.197Z,51.96
2022-10-05T17:42:52.309Z,51.91
2022-10-05T17:50:12.809Z,52.11
2022-10-05T17:57:24.363Z,51.95
2022-10-05T18:04:52.061Z,52.16
2022-10-05T18:11:43.471Z,52.04
2022-10-05T18:18:57.786Z,52.88
2022-10-05T18:25:51.050Z,52.17
2022-10-05T18:33:11.183Z,52.51
2022-10-05T18:40:24.566Z,52.64
2022-10-05T18:47:22.192Z,52.77
2022-10-05T18:54:24.953Z,52.87
2022-10-05T19:01:41.325Z,52.65
2022-10-05T19:08:36.097Z,52.54
2022-10-05T19:15:30.279Z,52.61
2022-10-05T19:22:31.278Z,52.18
2022-10-05T19:29:35.946Z,52.39
2022-10-05T19:36:46.785Z,52.43
2022-10-05T19:44:08.894Z,52.48
2022-10-05T19:50:58.435Z,52.25
2022-10-05T19:57:51.306Z,52.40
2022-10-05T20:04:43.161Z,52.17
2022-10-05T20:11:29.321Z,52.54
2022-10-05T20:18:52.096Z,52.19
2022-10-05T20:25:41.538Z,52.38
2022-10-05T20:32:30.730Z,52.48
2022-10-05T20:39:16.912Z,52.83
2022-10-05T20:46:04.902Z,52.66
2022-10-05T20:52:50.568Z,52.54
2022-10-05T20:59:37.641Z,52.61
2022-10-05T21:06:26.337Z,53.09
2022-10-05T21:13:12.881Z,53.02
2022-10-05T21:19:58.419Z,53.09
2022-10-05T21:26:47.759Z,52.75
2022-10-05T21:33:33.140Z,52.77
2022-10-05T21:40:19.532Z,52.92
2022-10-05T21:47:07.495Z,52.74
2022-10-05T21:53:57.854Z,52.69
2022-10-05T22:00:43.276Z,52.89
2022-10-05T22:07:35.119Z,53.34
2022-10-05T22:14:21.097Z,53.58
2022-10-05T22:21:07.915Z,53.55
2022-10-05T22:27:55.920Z,53.86
2022-10-05T22:34:41.313Z,53.54
2022-10-05T22:41:26.717Z,53.89
2022-10-05T22:48:15.897Z,53.58
2022-10-05T22:55:01.393Z,53.38
2022-10-05T23:01:46.856Z,52.62
2022-10-05T23:08:35.290Z,53.26
2022-10-05T23:15:21.020Z,53.22
2022-10-05T23:22:06.856Z,53.67
2022-10-05T23:28:55.084Z,54.40
2022-10-05T23:35:40.412Z,53.97
2022-10-05T23:42:26.430Z,54.62
2022-10-05T23:49:14.809Z,54.32
2022-10-05T23:56:00.254Z,54.58
